createdAt,value
2023-04-16T00:01:18.244Z,7.70
2023-04-16T00:03:46.869Z,7.80
2023-04-16T00:06:15.225Z,7.70
2023-04-16T00:08:43.680Z,7.70
2023-04-16T00:11:18.392Z,7.70
2023-04-16T00:13:46.407Z,7.70
2023-04-16T00:16:14.482Z,7.80
2023-04-16T00:18:44.503Z,7.70
2023-04-16T00:21:15.987Z,7.70
2023-04-16T00:23:43.982Z,7.70
2023-04-16T00:26:16.364Z,7.70
2023-04-16T00:28:47.910Z,7.70
2023-04-16T00:31:27.384Z,7.70
2023-04-16T00:33:56.958Z,7.80
2023-04-16T00:36:25.306Z,7.80
2023-04-16T00:38:53.972Z,7.80
2023-04-16T00:41:23.070Z,7.70
2023-04-16T00:43:51.783Z,7.70
2023-04-16T00:46:21.290Z,7.70
2023-04-16T00:48:50.376Z,7.70
2023-04-16T00:51:20.480Z,7.70
2023-04-16T00:53:48.962Z,7.70
2023-04-16T00:56:17.920Z,7.70
2023-04-16T00:58:46.497Z,7.70
2023-04-16T01:01:15.134Z,7.70
2023-04-16T01:03:46.022Z,7.70
2023-04-16T01:06:15.280Z,7.70
2023-04-16T01:08:44.954Z,7.70
2023-04-16T01:11:13.189Z,7.70
2023-04-16T01:13:41.200Z,7.70
2023-04-16T01:16:10.817Z,7.70
2023-04-16T01:18:39.352Z,7.70
2023-04-16T01:21:08.799Z,7.70
2023-04-16T01:23:36.826Z,7.70
2023-04-16T01:26:04.834Z,7.70
2023-04-16T01:28:33.059Z,7.70
2023-04-16T01:31:01.152Z,7.70
2023-04-16T01:33:29.255Z,7.70
2023-04-16T01:35:57.329Z,7.70
2023-04-16T01:38:26.782Z,7.70
2023-04-16T01:40:57.650Z,7.70
2023-04-16T01:43:25.686Z,7.70
2023-04-16T01:45:54.882Z,7.70
2023-04-16T01:48:22.966Z,7.70
2023-04-16T01:50:50.982Z,7.70
2023-04-16T01:53:18.965Z,7.70
2023-04-16T01:55:48.287Z,7.70
2023-04-16T01:58:16.316Z,7.70
2023-04-16T02:00:44.423Z,7.70
2023-04-16T02:03:12.623Z,7.70
2023-04-16T02:05:40.809Z,7.70
2023-04-16T02:08:08.761Z,7.70
2023-04-16T02:10:36.765Z,7.70
2023-04-16T02:13:06.238Z,7.70
2023-04-16T02:15:34.268Z,7.70
2023-04-16T02:18:02.386Z,7.70
2023-04-16T02:20:30.493Z,7.70
2023-04-16T02:22:58.453Z,7.70
2023-04-16T02:25:26.566Z,7.70
2023-04-16T02:27:54.540Z,7.70
2023-04-16T02:30:24.354Z,7.70
2023-04-16T02:32:52.437Z,7.70
2023-04-16T02:35:20.866Z,7.70
2023-04-16T02:37:48.895Z,7.70
2023-04-16T02:40:17.141Z,7.70
2023-04-16T02:42:45.102Z,7.70
2023-04-16T02:45:13.800Z,7.70
2023-04-16T02:47:43.273Z,7.60
2023-04-16T02:50:12.068Z,7.70
2023-04-16T02:52:40.157Z,7.70
2023-04-16T02:55:09.222Z,7.70
2023-04-16T02:57:37.471Z,7.70
2023-04-16T03:00:06.381Z,7.60
2023-04-16T03:02:34.531Z,7.60
2023-04-16T03:05:04.068Z,7.60
2023-04-16T03:07:32.159Z,7.60
2023-04-16T03:10:00.167Z,7.70
2023-04-16T03:12:28.186Z,7.70
2023-04-16T03:14:56.277Z,7.70
2023-04-16T03:17:24.297Z,7.60
2023-04-16T03:19:52.375Z,7.60
2023-04-16T03:22:21.741Z,7.60
2023-04-16T03:24:49.802Z,7.70
2023-04-16T03:27:17.767Z,7.70
2023-04-16T03:29:45.762Z,7.60
2023-04-16T03:32:13.822Z,7.70
2023-04-16T03:34:41.800Z,7.70
2023-04-16T03:37:12.034Z,7.60
2023-04-16T03:39:41.547Z,7.60
2023-04-16T03:42:09.609Z,7.60
2023-04-16T03:44:37.648Z,7.60
2023-04-16T03:47:05.632Z,7.60
2023-04-16T03:49:33.701Z,7.60
2023-04-16T03:52:01.774Z,7.60
2023-04-16T03:54:29.784Z,7.60
2023-04-16T03:56:59.135Z,7.60
2023-04-16T03:59:27.118Z,7.60
2023-04-16T04:01:55.198Z,7.60
2023-04-16T04:04:23.334Z,7.60
2023-04-16T04:06:51.419Z,7.60
2023-04-16T04:09:19.438Z,7.60
2023-04-16T04:11:47.369Z,7.60
2023-04-16T04:14:16.646Z,7.60
2023-04-16T04:16:44.815Z,7.60
2023-04-16T04:19:12.932Z,7.60
2023-04-16T04:21:40.914Z,7.60
2023-04-16T04:24:08.928Z,7.50
2023-04-16T04:26:36.927Z,7.50
2023-04-16T04:29:05.035Z,7.50
2023-04-16T04:31:34.369Z,7.60
2023-04-16T04:34:02.535Z,7.50
2023-04-16T04:36:30.987Z,7.50
2023-04-16T04:38:58.963Z,7.50
2023-04-16T04:41:27.774Z,7.60
2023-04-16T04:43:55.799Z,7.60
2023-04-16T04:46:23.896Z,7.60
2023-04-16T04:48:53.291Z,7.60
2023-04-16T04:51:21.318Z,7.60
2023-04-16T04:53:49.355Z,7.50
2023-04-16T04:56:17.369Z,7.50
2023-04-16T04:58:45.401Z,7.50
2023-04-16T05:01:13.390Z,7.60
2023-04-16T05:03:41.655Z,7.50
2023-04-16T05:06:11.154Z,7.50
2023-04-16T05:08:39.123Z,7.50
2023-04-16T05:11:07.111Z,7.50
2023-04-16T05:13:35.110Z,7.50
2023-04-16T05:16:03.189Z,7.50
2023-04-16T05:18:32.635Z,7.50
2023-04-16T05:21:00.634Z,7.50
2023-04-16T05:23:29.954Z,7.50
2023-04-16T05:25:57.977Z,7.50
2023-04-16T05:28:26.063Z,7.50
2023-04-16T05:30:54.109Z,7.50
2023-04-16T05:33:22.158Z,7.50
2023-04-16T05:35:50.382Z,7.50
2023-04-16T05:38:18.340Z,7.50
2023-04-16T05:40:47.701Z,7.60
2023-04-16T05:43:15.726Z,7.60
2023-04-16T05:45:43.672Z,7.60
2023-04-16T05:48:12.472Z,7.50
2023-04-16T05:50:40.680Z,7.50
2023-04-16T05:53:09.705Z,7.50
2023-04-16T05:55:37.757Z,7.50
2023-04-16T05:58:07.137Z,7.50
2023-04-16T06:00:35.375Z,7.50
2023-04-16T06:03:03.690Z,7.60
2023-04-16T06:05:32.364Z,7.50
2023-04-16T06:08:00.361Z,7.60
2023-04-16T06:10:28.508Z,7.50
2023-04-16T06:12:56.525Z,7.60
2023-04-16T06:15:25.854Z,7.60
2023-04-16T06:17:55.533Z,7.50
2023-04-16T06:20:25.634Z,7.50
2023-04-16T06:22:53.653Z,7.50
2023-04-16T06:25:21.635Z,7.60
2023-04-16T06:27:49.687Z,7.60
2023-04-16T06:30:17.831Z,7.60
2023-04-16T06:32:47.940Z,7.60
2023-04-16T06:35:16.173Z,7.60
2023-04-16T06:37:44.202Z,7.60
2023-04-16T06:40:13.018Z,7.60
2023-04-16T06:42:41.481Z,7.60
2023-04-16T06:45:11.710Z,7.60
2023-04-16T06:47:39.840Z,7.70
2023-04-16T06:50:10.183Z,7.70
2023-04-16T06:52:38.237Z,7.60
2023-04-16T06:55:08.296Z,7.60
2023-04-16T06:57:37.475Z,7.60
2023-04-16T07:00:06.701Z,7.60
2023-04-16T07:02:34.903Z,7.70
2023-04-16T07:05:03.082Z,7.70
2023-04-16T07:07:32.440Z,7.70
2023-04-16T07:10:00.938Z,7.70
2023-04-16T07:12:28.960Z,7.80
2023-04-16T07:14:57.130Z,7.80
2023-04-16T07:17:25.229Z,7.80
2023-04-16T07:19:53.365Z,7.80
2023-04-16T07:22:22.450Z,7.80
2023-04-16T07:24:51.817Z,7.90
2023-04-16T07:27:19.801Z,8.00
2023-04-16T07:29:47.753Z,8.00
2023-04-16T07:32:16.020Z,8.10
2023-04-16T07:34:44.177Z,8.10
2023-04-16T07:37:12.118Z,8.20
2023-04-16T07:39:40.138Z,8.30
2023-04-16T07:42:09.502Z,8.30
2023-04-16T07:44:37.530Z,8.30
2023-04-16T07:47:05.868Z,8.20
2023-04-16T07:49:33.987Z,8.20
2023-04-16T07:52:10.661Z,8.30
2023-04-16T07:54:38.666Z,8.20
2023-04-16T07:57:06.729Z,8.20
2023-04-16T07:59:36.203Z,8.20
2023-04-16T08:02:04.930Z,8.20
2023-04-16T08:04:33.298Z,8.30
2023-04-16T08:07:01.563Z,8.40
2023-04-16T08:09:29.788Z,8.50
2023-04-16T08:11:57.974Z,8.50
2023-04-16T08:14:26.048Z,8.40
2023-04-16T08:16:55.478Z,8.40
2023-04-16T08:19:23.509Z,8.30
2023-04-16T08:21:51.466Z,8.20
2023-04-16T08:24:19.460Z,8.20
2023-04-16T08:26:47.419Z,8.10
2023-04-16T08:29:15.549Z,8.10
2023-04-16T08:31:43.708Z,8.20
2023-04-16T08:34:13.327Z,8.20
2023-04-16T08:36:41.902Z,8.20
2023-04-16T08:39:10.172Z,8.20
2023-04-16T08:41:42.050Z,8.20
2023-04-16T08:44:13.023Z,8.30
2023-04-16T08:46:42.373Z,8.40
2023-04-16T08:49:15.121Z,8.40
2023-04-16T08:51:50.696Z,8.40
2023-04-16T08:54:29.265Z,8.40
2023-04-16T08:56:59.849Z,8.40
2023-04-16T08:59:29.477Z,8.40
2023-04-16T09:01:59.180Z,8.40
2023-04-16T09:04:29.315Z,8.50
2023-04-16T09:07:00.180Z,8.70
2023-04-16T09:09:28.710Z,8.60
2023-04-16T09:11:57.502Z,8.60
2023-04-16T09:14:26.143Z,8.70
2023-04-16T09:16:55.567Z,8.80
2023-04-16T09:19:24.402Z,8.90
2023-04-16T09:21:52.408Z,9.00
2023-04-16T09:24:23.210Z,9.00
2023-04-16T09:26:52.739Z,9.20
2023-04-16T09:29:37.134Z,9.30
2023-04-16T09:32:06.736Z,9.20
2023-04-16T09:34:35.905Z,9.10
2023-04-16T09:37:16.823Z,9.20
2023-04-16T09:39:46.911Z,9.10
2023-04-16T09:42:15.588Z,9.10
2023-04-16T09:44:43.650Z,9.10
2023-04-16T09:47:12.527Z,9.20
2023-04-16T09:49:43.115Z,9.20
2023-04-16T09:52:14.884Z,9.20
2023-04-16T09:54:49.781Z,9.10
2023-04-16T09:57:22.043Z,9.00
2023-04-16T09:59:53.878Z,9.00
2023-04-16T10:02:23.279Z,9.00
2023-04-16T10:04:52.910Z,9.00
2023-04-16T10:07:22.092Z,9.00
2023-04-16T10:09:52.570Z,8.90
2023-04-16T10:12:21.444Z,8.90
2023-04-16T10:14:50.467Z,9.00
2023-04-16T10:17:18.744Z,9.00
2023-04-16T10:19:47.530Z,9.10
2023-04-16T10:22:16.126Z,9.00
2023-04-16T10:24:44.978Z,9.10
2023-04-16T10:27:14.311Z,9.00
2023-04-16T10:29:42.548Z,9.10
2023-04-16T10:32:10.849Z,9.10
2023-04-16T10:34:38.993Z,9.10
2023-04-16T10:37:07.054Z,9.20
2023-04-16T10:39:38.268Z,9.40
2023-04-16T10:42:10.490Z,9.40
2023-04-16T10:44:44.408Z,9.30
2023-04-16T10:47:14.296Z,9.30
2023-04-16T10:49:43.780Z,9.30
2023-04-16T10:52:13.684Z,9.50
2023-04-16T10:54:42.342Z,9.60
2023-04-16T10:57:17.808Z,9.50
2023-04-16T10:59:49.638Z,9.40
2023-04-16T11:02:19.209Z,9.40
2023-04-16T11:04:50.720Z,9.30
2023-04-16T11:07:20.938Z,9.30
2023-04-16T11:10:00.404Z,9.10
2023-04-16T11:12:35.821Z,9.30
2023-04-16T11:15:09.960Z,9.50
2023-04-16T11:17:44.610Z,9.40
2023-04-16T11:20:20.723Z,9.30
2023-04-16T11:22:49.763Z,9.30
2023-04-16T11:25:22.240Z,9.30
2023-04-16T11:27:50.393Z,9.10
2023-04-16T11:30:28.772Z,9.10
2023-04-16T11:32:56.944Z,9.00
2023-04-16T11:35:25.101Z,9.00
2023-04-16T11:37:57.686Z,9.00
2023-04-16T11:40:26.177Z,9.20
2023-04-16T11:42:54.216Z,9.30
2023-04-16T11:45:23.573Z,9.30
2023-04-16T11:47:56.832Z,9.30
2023-04-16T11:50:26.259Z,9.30
2023-04-16T11:52:56.650Z,9.20
2023-04-16T11:55:25.942Z,9.20
2023-04-16T11:57:53.972Z,9.40
2023-04-16T12:00:24.820Z,9.50
2023-04-16T12:02:54.601Z,9.60
2023-04-16T12:05:31.719Z,9.80
2023-04-16T12:08:01.736Z,9.60
2023-04-16T12:10:30.387Z,9.30
2023-04-16T12:13:12.120Z,9.20
2023-04-16T12:15:51.689Z,9.20
2023-04-16T12:18:21.400Z,9.30
2023-04-16T12:20:50.878Z,9.30
2023-04-16T12:23:26.637Z,9.30
2023-04-16T12:25:54.855Z,9.30
2023-04-16T12:28:33.173Z,9.30
2023-04-16T12:31:03.378Z,9.30
2023-04-16T12:33:31.841Z,9.20
2023-04-16T12:35:59.979Z,9.30
2023-04-16T12:38:28.725Z,9.20
2023-04-16T12:40:57.751Z,9.20
2023-04-16T12:43:26.004Z,9.30
2023-04-16T12:45:54.136Z,9.20
2023-04-16T12:48:23.583Z,9.20
2023-04-16T12:50:54.201Z,9.10
2023-04-16T12:53:22.236Z,9.10
2023-04-16T12:55:50.475Z,9.20
2023-04-16T12:58:18.560Z,9.20
2023-04-16T13:00:46.713Z,9.30
2023-04-16T13:03:15.111Z,9.30
2023-04-16T13:05:44.949Z,9.30
2023-04-16T13:08:13.182Z,9.20
2023-04-16T13:10:41.503Z,9.20
2023-04-16T13:13:09.488Z,9.10
2023-04-16T13:15:37.736Z,9.10
2023-04-16T13:18:25.499Z,9.20
2023-04-16T13:20:57.327Z,9.20
2023-04-16T13:23:25.424Z,9.40
2023-04-16T13:25:53.886Z,9.30
2023-04-16T13:28:21.983Z,9.30
2023-04-16T13:30:50.755Z,9.30
2023-04-16T13:33:26.599Z,9.30
2023-04-16T13:35:58.621Z,9.20
2023-04-16T13:38:28.530Z,9.10
2023-04-16T13:40:56.991Z,9.10
2023-04-16T13:43:25.091Z,9.20
2023-04-16T13:45:53.470Z,9.10
2023-04-16T13:48:21.469Z,9.10
2023-04-16T13:50:49.509Z,9.20
2023-04-16T13:53:18.915Z,9.20
2023-04-16T13:55:46.973Z,9.30
2023-04-16T13:58:15.049Z,9.30
2023-04-16T14:00:43.468Z,9.20
2023-04-16T14:03:11.649Z,9.20
2023-04-16T14:05:41.069Z,9.20
2023-04-16T14:08:10.068Z,9.20
2023-04-16T14:10:40.557Z,9.10
2023-04-16T14:13:08.937Z,9.10
2023-04-16T14:15:36.988Z,9.10
2023-04-16T14:18:05.508Z,9.20
2023-04-16T14:20:33.685Z,9.10
2023-04-16T14:23:04.727Z,9.10
2023-04-16T14:25:32.886Z,9.10
2023-04-16T14:28:02.457Z,9.10
2023-04-16T14:30:30.780Z,9.10
2023-04-16T14:33:01.118Z,9.10
2023-04-16T14:35:29.773Z,9.10
2023-04-16T14:37:58.324Z,9.10
2023-04-16T14:40:26.430Z,9.10
2023-04-16T14:42:54.613Z,9.10
2023-04-16T14:45:26.181Z,9.10
2023-04-16T14:47:54.657Z,9.00
2023-04-16T14:50:22.693Z,9.00
2023-04-16T14:52:51.879Z,9.00
2023-04-16T14:55:20.068Z,9.00
2023-04-16T14:57:48.188Z,9.00
2023-04-16T15:00:18.790Z,9.00
2023-04-16T15:02:48.683Z,9.00
2023-04-16T15:05:18.494Z,9.00
2023-04-16T15:07:51.869Z,9.00
2023-04-16T15:10:19.925Z,9.00
2023-04-16T15:12:47.987Z,9.10
2023-04-16T15:15:17.557Z,9.10
2023-04-16T15:17:50.440Z,9.10
2023-04-16T15:20:28.404Z,9.10
2023-04-16T15:23:01.950Z,9.10
2023-04-16T15:25:40.463Z,9.10
2023-04-16T15:28:12.844Z,9.20
2023-04-16T15:30:41.560Z,9.10
2023-04-16T15:33:16.358Z,9.10
2023-04-16T15:35:49.498Z,9.00
2023-04-16T15:38:37.749Z,9.10
2023-04-16T15:41:07.618Z,9.00
2023-04-16T15:43:47.701Z,9.00
2023-04-16T15:46:17.535Z,9.00
2023-04-16T15:48:49.309Z,9.00
2023-04-16T15:51:21.521Z,9.00
2023-04-16T15:53:50.423Z,8.90
2023-04-16T15:56:35.472Z,9.00
2023-04-16T15:59:06.643Z,9.00
2023-04-16T16:01:57.599Z,9.00
2023-04-16T16:04:26.848Z,9.00
2023-04-16T16:07:00.347Z,8.90
2023-04-16T16:09:31.004Z,9.00
2023-04-16T16:12:03.511Z,9.00
2023-04-16T16:14:41.797Z,9.00
2023-04-16T16:17:12.899Z,9.00
2023-04-16T16:19:41.193Z,9.00
2023-04-16T16:22:10.665Z,9.00
2023-04-16T16:24:38.851Z,9.00
2023-04-16T16:27:07.001Z,9.00
2023-04-16T16:29:35.065Z,9.00
2023-04-16T16:32:03.177Z,9.00
2023-04-16T16:34:31.410Z,9.00
2023-04-16T16:36:59.469Z,9.00
2023-04-16T16:39:28.861Z,9.00
2023-04-16T16:42:01.376Z,9.00
2023-04-16T16:44:29.598Z,9.00
2023-04-16T16:47:00.525Z,9.00
2023-04-16T16:49:28.727Z,9.00
2023-04-16T16:52:00.012Z,9.10
2023-04-16T16:54:29.583Z,9.10
2023-04-16T16:56:58.651Z,9.10
2023-04-16T16:59:26.824Z,9.10
2023-04-16T17:01:55.520Z,9.10
2023-04-16T17:04:24.086Z,9.10
2023-04-16T17:06:52.553Z,9.10
2023-04-16T17:09:20.755Z,9.00
2023-04-16T17:11:50.172Z,9.00
2023-04-16T17:14:18.366Z,9.00
2023-04-16T17:16:49.732Z,9.00
2023-04-16T17:19:18.228Z,9.00
2023-04-16T17:21:46.890Z,9.10
2023-04-16T17:24:15.058Z,9.00
2023-04-16T17:26:43.232Z,9.00
2023-04-16T17:29:12.989Z,9.00
2023-04-16T17:31:41.366Z,9.00
2023-04-16T17:34:09.750Z,9.00
2023-04-16T17:36:38.649Z,9.00
2023-04-16T17:39:06.865Z,9.00
2023-04-16T17:41:35.126Z,9.00
2023-04-16T17:44:03.298Z,9.00
2023-04-16T17:46:33.329Z,9.00
2023-04-16T17:49:01.781Z,9.00
2023-04-16T17:51:30.109Z,9.00
2023-04-16T17:53:58.324Z,9.00
2023-04-16T17:56:26.505Z,9.00
2023-04-16T17:58:55.383Z,9.00
2023-04-16T18:01:23.629Z,9.00
2023-04-16T18:03:53.219Z,9.00
2023-04-16T18:06:21.499Z,9.00
2023-04-16T18:08:49.817Z,9.00
2023-04-16T18:11:17.889Z,9.00
2023-04-16T18:13:46.130Z,8.90
2023-04-16T18:16:16.672Z,9.00
2023-04-16T18:18:44.934Z,9.00
2023-04-16T18:21:14.418Z,9.00
2023-04-16T18:23:42.568Z,9.00
2023-04-16T18:26:11.334Z,9.00
2023-04-16T18:28:41.057Z,9.00
2023-04-16T18:31:09.337Z,9.00
2023-04-16T18:36:08.894Z,8.90
2023-04-16T18:38:46.314Z,9.00
2023-04-16T18:41:21.740Z,9.00
2023-04-16T18:43:49.901Z,9.00
2023-04-16T18:46:18.269Z,9.00
2023-04-16T18:48:46.426Z,9.00
2023-04-16T18:51:16.312Z,9.00
2023-04-16T18:53:46.458Z,9.00
2023-04-16T18:56:14.556Z,8.90
2023-04-16T18:58:43.271Z,9.00
2023-04-16T19:01:13.535Z,9.00
2023-04-16T19:03:41.911Z,9.00
2023-04-16T19:06:10.311Z,9.00
2023-04-16T19:08:41.198Z,9.00
2023-04-16T19:11:10.669Z,9.00
2023-04-16T19:13:39.254Z,9.00
2023-04-16T19:16:11.442Z,9.00
2023-04-16T19:18:40.079Z,9.00
2023-04-16T19:21:10.038Z,9.00
2023-04-16T19:23:38.215Z,9.00
2023-04-16T19:26:06.460Z,9.00
2023-04-16T19:28:40.178Z,8.90
2023-04-16T19:31:11.914Z,9.00
2023-04-16T19:33:42.315Z,9.00
2023-04-16T19:36:10.476Z,9.00
2023-04-16T19:38:38.776Z,8.90
2023-04-16T19:41:06.932Z,8.90
2023-04-16T19:43:36.948Z,8.90
2023-04-16T19:46:06.440Z,8.90
2023-04-16T19:48:34.701Z,8.90
2023-04-16T19:51:04.186Z,8.90
2023-04-16T19:56:29.318Z,8.90
2023-04-16T19:58:59.502Z,8.90
2023-04-16T20:01:30.818Z,8.90
2023-04-16T20:03:59.024Z,8.90
2023-04-16T20:06:27.776Z,8.80
2023-04-16T20:08:57.311Z,8.90
2023-04-16T20:11:25.934Z,8.90
2023-04-16T20:13:54.368Z,8.90
2023-04-16T20:16:23.962Z,8.90
2023-04-16T20:18:54.298Z,8.80
2023-04-16T20:21:22.561Z,8.90
2023-04-16T20:23:50.877Z,8.90
2023-04-16T20:26:19.309Z,8.90
2023-04-16T20:28:47.335Z,8.80
2023-04-16T20:31:15.542Z,8.80
2023-04-16T20:33:45.815Z,8.80
2023-04-16T20:36:15.408Z,8.80
2023-04-16T20:38:43.673Z,8.80
2023-04-16T20:41:14.505Z,8.80
2023-04-16T20:43:43.046Z,8.80
2023-04-16T20:46:12.202Z,8.80
2023-04-16T20:48:40.264Z,8.80
2023-04-16T20:51:09.378Z,8.80
2023-04-16T20:53:38.807Z,8.80
2023-04-16T20:56:09.106Z,8.80
2023-04-16T20:58:37.377Z,8.80
2023-04-16T21:01:08.457Z,8.80
2023-04-16T21:03:37.080Z,8.80
2023-04-16T21:06:05.415Z,8.80
2023-04-16T21:08:33.414Z,8.80
2023-04-16T21:11:02.841Z,8.80
2023-04-16T21:13:31.162Z,8.80
2023-04-16T21:15:59.272Z,8.70
2023-04-16T21:18:27.382Z,8.70
2023-04-16T21:20:56.525Z,8.80
2023-04-16T21:23:24.532Z,8.80
2023-04-16T21:25:52.507Z,8.80
2023-04-16T21:28:21.935Z,8.80
2023-04-16T21:30:52.515Z,8.70
2023-04-16T21:33:21.040Z,8.70
2023-04-16T21:35:52.840Z,8.70
2023-04-16T21:38:21.428Z,8.70
2023-04-16T21:40:50.737Z,8.70
2023-04-16T21:43:19.062Z,8.70
2023-04-16T21:45:48.628Z,8.70
2023-04-16T21:48:16.677Z,8.80
2023-04-16T21:50:44.821Z,8.80
2023-04-16T21:53:13.053Z,8.80
2023-04-16T21:55:42.250Z,8.80
2023-04-16T21:58:10.306Z,8.80
2023-04-16T22:00:38.508Z,8.80
2023-04-16T22:03:08.996Z,8.90
2023-04-16T22:05:37.463Z,8.90
2023-04-16T22:08:21.007Z,8.90
2023-04-16T22:10:52.423Z,8.90
2023-04-16T22:13:21.663Z,8.90
2023-04-16T22:15:49.888Z,8.90
2023-04-16T22:18:19.584Z,8.90
2023-04-16T22:20:50.943Z,8.90
2023-04-16T22:23:19.124Z,8.90
2023-04-16T22:25:47.166Z,8.90
2023-04-16T22:28:15.379Z,8.90
2023-04-16T22:30:43.492Z,8.90
2023-04-16T22:33:11.633Z,8.90
2023-04-16T22:35:41.216Z,8.90
2023-04-16T22:38:10.145Z,8.90
2023-04-16T22:40:38.255Z,8.90
2023-04-16T22:43:06.330Z,8.90
2023-04-16T22:45:34.621Z,8.90
2023-04-16T22:48:02.893Z,8.90
2023-04-16T22:50:32.077Z,8.90
2023-04-16T22:53:01.415Z,8.90
2023-04-16T22:55:29.463Z,8.90
2023-04-16T22:57:57.526Z,8.80
2023-04-16T23:00:25.496Z,8.90
2023-04-16T23:02:53.582Z,8.90
2023-04-16T23:05:21.800Z,8.90
2023-04-16T23:07:49.841Z,8.90
2023-04-16T23:10:19.176Z,8.90
2023-04-16T23:12:47.174Z,8.90
2023-04-16T23:15:15.356Z,8.90
2023-04-16T23:17:43.394Z,8.90
2023-04-16T23:20:13.188Z,8.90
2023-04-16T23:22:41.823Z,8.90
2023-04-16T23:25:10.829Z,8.90
2023-04-16T23:27:40.198Z,8.90
2023-04-16T23:30:09.385Z,8.80
2023-04-16T23:32:37.512Z,8.80
2023-04-16T23:35:06.203Z,8.80
2023-04-16T23:37:34.171Z,8.80
2023-04-16T23:40:02.138Z,8.80
2023-04-16T23:42:30.244Z,8.70
2023-04-16T23:44:59.721Z,8.70
2023-04-16T23:47:27.789Z,8.70
2023-04-16T23:49:56.120Z,8.70
2023-04-16T23:52:24.107Z,8.80
2023-04-16T23:54:52.084Z,8.80
2023-04-16T23:57:20.114Z,8.80
2023-04-16T23:59:48.110Z,8.80
